sensor_id;sensor_type;location;lat;lon;timestamp;temperature;humidity
22578;DHT22;11455;52.390;13.028;2022-11-18T00:01:53;4.90;99.90
22578;DHT22;11455;52.390;13.028;2022-11-18T00:04:21;4.90;99.90
22578;DHT22;11455;52.390;13.028;2022-11-18T00:06:47;4.90;99.90
22578;DHT22;11455;52.390;13.028;2022-11-18T00:09:19;4.90;99.90
22578;DHT22;11455;52.390;13.028;2022-11-18T00:11:44;4.90;99.90
22578;DHT22;11455;52.390;13.028;2022-11-18T00:14:32;4.80;99.90
22578;DHT22;11455;52.390;13.028;2022-11-18T00:16:59;4.80;99.90
22578;DHT22;11455;52.390;13.028;2022-11-18T00:19:27;4.80;99.90
22578;DHT22;11455;52.390;13.028;2022-11-18T00:21:53;4.90;99.90
22578;DHT22;11455;52.390;13.028;2022-11-18T00:24:19;5.00;99.90
22578;DHT22;11455;52.390;13.028;2022-11-18T00:26:45;4.90;99.90
22578;DHT22;11455;52.390;13.028;2022-11-18T00:29:10;4.90;99.90
22578;DHT22;11455;52.390;13.028;2022-11-18T00:31:36;4.80;99.90
22578;DHT22;11455;52.390;13.028;2022-11-18T00:34:02;4.90;99.90
22578;DHT22;11455;52.390;13.028;2022-11-18T00:36:28;4.80;99.90
22578;DHT22;11455;52.390;13.028;2022-11-18T00:38:54;4.80;99.90
22578;DHT22;11455;52.390;13.028;2022-11-18T00:41:20;4.80;99.90
22578;DHT22;11455;52.390;13.028;2022-11-18T00:43:48;4.80;99.90
22578;DHT22;11455;52.390;13.028;2022-11-18T00:46:14;4.90;99.90
22578;DHT22;11455;52.390;13.028;2022-11-18T00:48:40;4.90;99.90
22578;DHT22;11455;52.390;13.028;2022-11-18T00:51:09;4.90;99.90
22578;DHT22;11455;52.390;13.028;2022-11-18T00:53:35;4.90;99.90
22578;DHT22;11455;52.390;13.028;2022-11-18T00:56:01;4.90;99.90
22578;DHT22;11455;52.390;13.028;2022-11-18T00:58:26;4.90;99.90
22578;DHT22;11455;52.390;13.028;2022-11-18T01:00:52;4.80;99.90
22578;DHT22;11455;52.390;13.028;2022-11-18T01:03:21;4.70;99.90
22578;DHT22;11455;52.390;13.028;2022-11-18T01:05:46;4.70;99.90
22578;DHT22;11455;52.390;13.028;2022-11-18T01:08:14;4.80;99.90
22578;DHT22;11455;52.390;13.028;2022-11-18T01:10:40;4.90;99.90
22578;DHT22;11455;52.390;13.028;2022-11-18T01:13:06;4.90;99.90
22578;DHT22;11455;52.390;13.028;2022-11-18T01:18:21;4.80;99.90
22578;DHT22;11455;52.390;13.028;2022-11-18T01:20:47;4.90;99.90
22578;DHT22;11455;52.390;13.028;2022-11-18T01:23:13;5.00;99.90
22578;DHT22;11455;52.390;13.028;2022-11-18T01:25:39;4.90;99.90
22578;DHT22;11455;52.390;13.028;2022-11-18T01:28:06;5.10;99.90
22578;DHT22;11455;52.390;13.028;2022-11-18T01:30:32;5.10;99.90
22578;DHT22;11455;52.390;13.028;2022-11-18T01:33:01;5.10;99.90
22578;DHT22;11455;52.390;13.028;2022-11-18T01:35:27;5.10;99.90
22578;DHT22;11455;52.390;13.028;2022-11-18T01:37:55;5.10;99.90
22578;DHT22;11455;52.390;13.028;2022-11-18T01:40:25;5.00;99.90
22578;DHT22;11455;52.390;13.028;2022-11-18T01:42:51;5.00;99.90
22578;DHT22;11455;52.390;13.028;2022-11-18T01:45:19;4.90;99.90
22578;DHT22;11455;52.390;13.028;2022-11-18T01:47:50;4.80;99.90
22578;DHT22;11455;52.390;13.028;2022-11-18T01:50:17;4.70;99.90
22578;DHT22;11455;52.390;13.028;2022-11-18T01:52:44;4.70;99.90
22578;DHT22;11455;52.390;13.028;2022-11-18T01:55:15;4.60;99.90
22578;DHT22;11455;52.390;13.028;2022-11-18T01:57:41;4.60;99.90
22578;DHT22;11455;52.390;13.028;2022-11-18T02:00:08;4.60;99.90
22578;DHT22;11455;52.390;13.028;2022-11-18T02:02:37;4.70;99.90
22578;DHT22;11455;52.390;13.028;2022-11-18T02:05:06;4.80;99.90
22578;DHT22;11455;52.390;13.028;2022-11-18T02:07:33;4.80;99.90
22578;DHT22;11455;52.390;13.028;2022-11-18T02:10:01;4.80;99.90
22578;DHT22;11455;52.390;13.028;2022-11-18T02:12:27;4.70;99.90
22578;DHT22;11455;52.390;13.028;2022-11-18T02:14:53;4.60;99.90
22578;DHT22;11455;52.390;13.028;2022-11-18T02:17:37;4.50;99.90
22578;DHT22;11455;52.390;13.028;2022-11-18T02:30:24;4.40;99.90
22578;DHT22;11455;52.390;13.028;2022-11-18T02:32:56;4.30;99.90
22578;DHT22;11455;52.390;13.028;2022-11-18T02:37:59;4.30;99.90
22578;DHT22;11455;52.390;13.028;2022-11-18T02:40:37;4.30;99.90
22578;DHT22;11455;52.390;13.028;2022-11-18T02:43:17;4.30;99.90
22578;DHT22;11455;52.390;13.028;2022-11-18T02:45:48;4.30;99.90
22578;DHT22;11455;52.390;13.028;2022-11-18T02:48:15;4.40;99.90
22578;DHT22;11455;52.390;13.028;2022-11-18T02:50:42;4.50;99.90
22578;DHT22;11455;52.390;13.028;2022-11-18T02:53:09;4.50;99.90
22578;DHT22;11455;52.390;13.028;2022-11-18T02:55:36;4.60;99.90
22578;DHT22;11455;52.390;13.028;2022-11-18T02:58:02;4.60;99.90
22578;DHT22;11455;52.390;13.028;2022-11-18T03:00:32;4.50;99.90
22578;DHT22;11455;52.390;13.028;2022-11-18T03:02:58;4.50;99.90
22578;DHT22;11455;52.390;13.028;2022-11-18T03:08:12;4.60;99.90
22578;DHT22;11455;52.390;13.028;2022-11-18T03:10:41;4.60;99.90
22578;DHT22;11455;52.390;13.028;2022-11-18T03:13:10;4.60;99.90
22578;DHT22;11455;52.390;13.028;2022-11-18T03:18:22;4.70;99.90
22578;DHT22;11455;52.390;13.028;2022-11-18T03:20:52;4.80;99.90
22578;DHT22;11455;52.390;13.028;2022-11-18T03:23:22;4.80;99.90
22578;DHT22;11455;52.390;13.028;2022-11-18T03:25:51;4.80;99.90
22578;DHT22;11455;52.390;13.028;2022-11-18T03:28:33;4.80;99.90
22578;DHT22;11455;52.390;13.028;2022-11-18T03:33:34;4.60;99.90
22578;DHT22;11455;52.390;13.028;2022-11-18T03:36:01;4.60;99.90
22578;DHT22;11455;52.390;13.028;2022-11-18T03:38:30;4.60;99.90
22578;DHT22;11455;52.390;13.028;2022-11-18T03:40:58;4.60;99.90
22578;DHT22;11455;52.390;13.028;2022-11-18T03:43:28;4.60;99.90
22578;DHT22;11455;52.390;13.028;2022-11-18T03:45:56;4.50;99.90
22578;DHT22;11455;52.390;13.028;2022-11-18T03:48:25;4.40;99.90
22578;DHT22;11455;52.390;13.028;2022-11-18T03:50:55;4.40;99.90
22578;DHT22;11455;52.390;13.028;2022-11-18T03:53:22;4.50;99.90
22578;DHT22;11455;52.390;13.028;2022-11-18T03:55:50;4.70;99.90
22578;DHT22;11455;52.390;13.028;2022-11-18T03:58:19;4.70;99.90
22578;DHT22;11455;52.390;13.028;2022-11-18T04:00:49;4.60;99.90
22578;DHT22;11455;52.390;13.028;2022-11-18T04:03:16;4.50;99.90
22578;DHT22;11455;52.390;13.028;2022-11-18T04:05:42;4.50;99.90
22578;DHT22;11455;52.390;13.028;2022-11-18T04:08:28;4.40;99.90
22578;DHT22;11455;52.390;13.028;2022-11-18T04:11:04;4.30;99.90
22578;DHT22;11455;52.390;13.028;2022-11-18T04:13:32;4.30;99.90
22578;DHT22;11455;52.390;13.028;2022-11-18T04:15:59;4.30;99.90
22578;DHT22;11455;52.390;13.028;2022-11-18T04:18:24;4.30;99.90
22578;DHT22;11455;52.390;13.028;2022-11-18T04:20:53;4.40;99.90
22578;DHT22;11455;52.390;13.028;2022-11-18T04:23:18;4.30;99.90
22578;DHT22;11455;52.390;13.028;2022-11-18T04:25:44;4.40;99.90
22578;DHT22;11455;52.390;13.028;2022-11-18T04:28:10;4.50;99.90
22578;DHT22;11455;52.390;13.028;2022-11-18T04:30:35;4.60;99.90
22578;DHT22;11455;52.390;13.028;2022-11-18T04:33:01;4.60;99.90
22578;DHT22;11455;52.390;13.028;2022-11-18T04:35:27;4.50;99.90
22578;DHT22;11455;52.390;13.028;2022-11-18T04:37:53;4.50;99.90
22578;DHT22;11455;52.390;13.028;2022-11-18T04:40:18;4.40;99.90
22578;DHT22;11455;52.390;13.028;2022-11-18T04:42:44;4.50;99.90
22578;DHT22;11455;52.390;13.028;2022-11-18T04:45:10;4.50;99.90
22578;DHT22;11455;52.390;13.028;2022-11-18T04:47:36;4.50;99.90
22578;DHT22;11455;52.390;13.028;2022-11-18T04:50:04;4.50;99.90
22578;DHT22;11455;52.390;13.028;2022-11-18T04:52:30;4.50;99.90
22578;DHT22;11455;52.390;13.028;2022-11-18T04:54:58;4.40;99.90
22578;DHT22;11455;52.390;13.028;2022-11-18T04:57:23;4.30;99.90
22578;DHT22;11455;52.390;13.028;2022-11-18T04:59:49;4.30;99.90
22578;DHT22;11455;52.390;13.028;2022-11-18T05:02:15;4.10;99.90
22578;DHT22;11455;52.390;13.028;2022-11-18T05:04:41;4.20;99.90
22578;DHT22;11455;52.390;13.028;2022-11-18T05:07:06;4.30;99.90
22578;DHT22;11455;52.390;13.028;2022-11-18T05:09:32;4.30;99.90
22578;DHT22;11455;52.390;13.028;2022-11-18T05:11:59;4.30;99.90
22578;DHT22;11455;52.390;13.028;2022-11-18T05:14:43;4.20;99.90
22578;DHT22;11455;52.390;13.028;2022-11-18T05:17:12;4.10;99.90
22578;DHT22;11455;52.390;13.028;2022-11-18T05:19:40;4.00;99.90
22578;DHT22;11455;52.390;13.028;2022-11-18T05:22:05;4.00;99.90
22578;DHT22;11455;52.390;13.028;2022-11-18T05:24:31;3.90;99.90
22578;DHT22;11455;52.390;13.028;2022-11-18T05:27:06;4.00;99.90
22578;DHT22;11455;52.390;13.028;2022-11-18T05:29:31;4.10;99.90
22578;DHT22;11455;52.390;13.028;2022-11-18T05:31:57;4.20;99.90
22578;DHT22;11455;52.390;13.028;2022-11-18T05:34:23;4.20;99.90
22578;DHT22;11455;52.390;13.028;2022-11-18T05:36:49;4.20;99.90
22578;DHT22;11455;52.390;13.028;2022-11-18T05:39:14;4.20;99.90
22578;DHT22;11455;52.390;13.028;2022-11-18T05:41:40;4.20;99.90
22578;DHT22;11455;52.390;13.028;2022-11-18T05:44:29;4.30;99.90
22578;DHT22;11455;52.390;13.028;2022-11-18T05:46:54;4.30;99.90
22578;DHT22;11455;52.390;13.028;2022-11-18T05:49:21;4.20;99.90
22578;DHT22;11455;52.390;13.028;2022-11-18T05:51:46;4.20;99.90
22578;DHT22;11455;52.390;13.028;2022-11-18T05:54:12;4.00;99.90
22578;DHT22;11455;52.390;13.028;2022-11-18T05:56:39;4.10;99.90
22578;DHT22;11455;52.390;13.028;2022-11-18T05:59:06;4.00;99.90
22578;DHT22;11455;52.390;13.028;2022-11-18T06:01:33;4.10;99.90
22578;DHT22;11455;52.390;13.028;2022-11-18T06:04:01;4.20;99.90
22578;DHT22;11455;52.390;13.028;2022-11-18T06:06:27;4.20;99.90
22578;DHT22;11455;52.390;13.028;2022-11-18T06:08:57;4.20;99.90
22578;DHT22;11455;52.390;13.028;2022-11-18T06:11:23;4.20;99.90
22578;DHT22;11455;52.390;13.028;2022-11-18T06:13:56;4.20;99.90
22578;DHT22;11455;52.390;13.028;2022-11-18T06:16:26;4.20;99.90
22578;DHT22;11455;52.390;13.028;2022-11-18T06:18:53;4.20;99.90
22578;DHT22;11455;52.390;13.028;2022-11-18T06:21:18;4.10;99.90
22578;DHT22;11455;52.390;13.028;2022-11-18T06:23:44;4.20;99.90
22578;DHT22;11455;52.390;13.028;2022-11-18T06:26:11;4.30;99.90
22578;DHT22;11455;52.390;13.028;2022-11-18T06:28:41;4.30;99.90
22578;DHT22;11455;52.390;13.028;2022-11-18T06:31:07;4.30;99.90
22578;DHT22;11455;52.390;13.028;2022-11-18T06:33:33;4.30;99.90
22578;DHT22;11455;52.390;13.028;2022-11-18T06:35:58;4.30;99.90
22578;DHT22;11455;52.390;13.028;2022-11-18T06:38:24;4.30;99.90
22578;DHT22;11455;52.390;13.028;2022-11-18T06:40:50;4.30;99.90
22578;DHT22;11455;52.390;13.028;2022-11-18T06:43:16;4.40;99.90
22578;DHT22;11455;52.390;13.028;2022-11-18T06:46:01;4.30;99.90
22578;DHT22;11455;52.390;13.028;2022-11-18T06:48:46;4.40;99.90
22578;DHT22;11455;52.390;13.028;2022-11-18T06:51:12;4.40;99.90
22578;DHT22;11455;52.390;13.028;2022-11-18T06:53:38;4.30;99.90
22578;DHT22;11455;52.390;13.028;2022-11-18T06:56:04;4.20;99.90
22578;DHT22;11455;52.390;13.028;2022-11-18T06:58:30;4.00;99.90
22578;DHT22;11455;52.390;13.028;2022-11-18T07:00:56;3.90;99.90
22578;DHT22;11455;52.390;13.028;2022-11-18T07:03:21;4.00;99.90
22578;DHT22;11455;52.390;13.028;2022-11-18T07:05:47;4.00;99.90
22578;DHT22;11455;52.390;13.028;2022-11-18T07:08:12;4.00;99.90
22578;DHT22;11455;52.390;13.028;2022-11-18T07:10:38;3.90;99.90
22578;DHT22;11455;52.390;13.028;2022-11-18T07:13:06;3.90;99.90
22578;DHT22;11455;52.390;13.028;2022-11-18T07:15:32;3.80;99.90
22578;DHT22;11455;52.390;13.028;2022-11-18T07:17:58;3.70;99.90
22578;DHT22;11455;52.390;13.028;2022-11-18T07:20:23;3.80;99.90
22578;DHT22;11455;52.390;13.028;2022-11-18T07:22:51;3.80;80.10
22578;DHT22;11455;52.390;13.028;2022-11-18T07:25:16;3.60;86.60
22578;DHT22;11455;52.390;13.028;2022-11-18T07:27:42;3.60;95.90
22578;DHT22;11455;52.390;13.028;2022-11-18T07:30:08;3.70;99.90
22578;DHT22;11455;52.390;13.028;2022-11-18T07:32:33;3.80;64.60
22578;DHT22;11455;52.390;13.028;2022-11-18T07:34:59;3.60;89.80
22578;DHT22;11455;52.390;13.028;2022-11-18T07:37:25;3.60;76.20
22578;DHT22;11455;52.390;13.028;2022-11-18T07:39:53;3.60;82.90
22578;DHT22;11455;52.390;13.028;2022-11-18T07:42:19;3.50;68.20
22578;DHT22;11455;52.390;13.028;2022-11-18T07:44:44;3.40;99.90
22578;DHT22;11455;52.390;13.028;2022-11-18T07:47:10;3.40;99.90
22578;DHT22;11455;52.390;13.028;2022-11-18T07:49:35;3.30;99.90
22578;DHT22;11455;52.390;13.028;2022-11-18T07:52:01;3.30;99.90
22578;DHT22;11455;52.390;13.028;2022-11-18T07:54:27;3.40;99.90
22578;DHT22;11455;52.390;13.028;2022-11-18T07:56:52;3.30;99.90
22578;DHT22;11455;52.390;13.028;2022-11-18T07:59:18;3.30;99.90
22578;DHT22;11455;52.390;13.028;2022-11-18T08:01:44;3.30;99.90
22578;DHT22;11455;52.390;13.028;2022-11-18T08:04:10;3.30;99.90
22578;DHT22;11455;52.390;13.028;2022-11-18T08:06:36;3.40;99.90
22578;DHT22;11455;52.390;13.028;2022-11-18T08:09:02;3.50;99.90
22578;DHT22;11455;52.390;13.028;2022-11-18T08:11:28;3.60;99.90
22578;DHT22;11455;52.390;13.028;2022-11-18T08:13:54;3.60;99.90
22578;DHT22;11455;52.390;13.028;2022-11-18T08:16:20;3.50;99.90
22578;DHT22;11455;52.390;13.028;2022-11-18T08:18:46;3.30;99.90
22578;DHT22;11455;52.390;13.028;2022-11-18T08:21:13;3.30;99.90
22578;DHT22;11455;52.390;13.028;2022-11-18T08:23:41;3.40;99.90
22578;DHT22;11455;52.390;13.028;2022-11-18T08:26:08;3.50;99.90
22578;DHT22;11455;52.390;13.028;2022-11-18T08:28:34;3.60;99.90
22578;DHT22;11455;52.390;13.028;2022-11-18T08:30:59;3.60;99.90
22578;DHT22;11455;52.390;13.028;2022-11-18T08:33:25;3.50;99.90
22578;DHT22;11455;52.390;13.028;2022-11-18T08:35:51;3.50;99.90
22578;DHT22;11455;52.390;13.028;2022-11-18T08:38:18;3.60;93.80
22578;DHT22;11455;52.390;13.028;2022-11-18T08:40:45;3.70;57.80
22578;DHT22;11455;52.390;13.028;2022-11-18T08:43:12;3.70;61.90
22578;DHT22;11455;52.390;13.028;2022-11-18T08:45:38;3.80;55.00
22578;DHT22;11455;52.390;13.028;2022-11-18T08:48:04;3.90;27.10
22578;DHT22;11455;52.390;13.028;2022-11-18T08:50:30;4.00;19.00
22578;DHT22;11455;52.390;13.028;2022-11-18T08:52:58;3.80;1.00
22578;DHT22;11455;52.390;13.028;2022-11-18T08:55:23;3.70;1.00
22578;DHT22;11455;52.390;13.028;2022-11-18T08:57:49;3.50;1.00
22578;DHT22;11455;52.390;13.028;2022-11-18T09:00:15;3.60;1.00
22578;DHT22;11455;52.390;13.028;2022-11-18T09:02:43;3.50;1.00
22578;DHT22;11455;52.390;13.028;2022-11-18T09:05:08;3.50;1.00
22578;DHT22;11455;52.390;13.028;2022-11-18T09:07:34;3.60;1.00
22578;DHT22;11455;52.390;13.028;2022-11-18T09:09:59;3.50;1.00
22578;DHT22;11455;52.390;13.028;2022-11-18T09:12:25;3.50;1.00
22578;DHT22;11455;52.390;13.028;2022-11-18T09:14:51;3.40;1.00
22578;DHT22;11455;52.390;13.028;2022-11-18T09:17:16;3.40;1.00
22578;DHT22;11455;52.390;13.028;2022-11-18T09:19:42;3.50;1.00
22578;DHT22;11455;52.390;13.028;2022-11-18T09:22:08;3.60;1.00
22578;DHT22;11455;52.390;13.028;2022-11-18T09:24:33;3.60;1.00
22578;DHT22;11455;52.390;13.028;2022-11-18T09:27:03;3.60;1.00
22578;DHT22;11455;52.390;13.028;2022-11-18T09:29:30;3.70;1.00
22578;DHT22;11455;52.390;13.028;2022-11-18T09:31:55;3.70;1.00
22578;DHT22;11455;52.390;13.028;2022-11-18T09:34:21;3.70;1.00
22578;DHT22;11455;52.390;13.028;2022-11-18T09:36:47;3.70;1.00
22578;DHT22;11455;52.390;13.028;2022-11-18T09:39:15;3.60;1.00
22578;DHT22;11455;52.390;13.028;2022-11-18T09:49:30;3.60;1.00
22578;DHT22;11455;52.390;13.028;2022-11-18T09:51:56;3.50;1.00
22578;DHT22;11455;52.390;13.028;2022-11-18T09:54:27;3.40;1.00
22578;DHT22;11455;52.390;13.028;2022-11-18T09:56:54;3.40;1.00
22578;DHT22;11455;52.390;13.028;2022-11-18T09:59:22;3.50;1.00
22578;DHT22;11455;52.390;13.028;2022-11-18T10:01:48;3.30;1.00
22578;DHT22;11455;52.390;13.028;2022-11-18T10:04:15;3.40;1.00
22578;DHT22;11455;52.390;13.028;2022-11-18T10:06:41;3.40;1.00
22578;DHT22;11455;52.390;13.028;2022-11-18T10:19:25;3.30;1.00
22578;DHT22;11455;52.390;13.028;2022-11-18T10:24:41;3.40;1.00
22578;DHT22;11455;52.390;13.028;2022-11-18T10:27:11;3.40;1.00
22578;DHT22;11455;52.390;13.028;2022-11-18T10:29:37;3.40;1.00
22578;DHT22;11455;52.390;13.028;2022-11-18T10:32:05;3.40;1.00
22578;DHT22;11455;52.390;13.028;2022-11-18T10:34:31;3.40;1.00
22578;DHT22;11455;52.390;13.028;2022-11-18T10:37:06;3.50;1.00
22578;DHT22;11455;52.390;13.028;2022-11-18T10:39:51;3.50;1.00
22578;DHT22;11455;52.390;13.028;2022-11-18T10:42:33;3.40;1.00
22578;DHT22;11455;52.390;13.028;2022-11-18T10:45:13;3.20;1.00
22578;DHT22;11455;52.390;13.028;2022-11-18T10:47:39;3.20;1.00
22578;DHT22;11455;52.390;13.028;2022-11-18T10:50:29;3.20;1.00
22578;DHT22;11455;52.390;13.028;2022-11-18T10:52:53;3.30;1.00
22578;DHT22;11455;52.390;13.028;2022-11-18T10:55:20;3.20;1.00
22578;DHT22;11455;52.390;13.028;2022-11-18T10:57:46;3.30;1.00
22578;DHT22;11455;52.390;13.028;2022-11-18T11:02:57;3.40;1.00
22578;DHT22;11455;52.390;13.028;2022-11-18T11:05:22;3.40;1.00
22578;DHT22;11455;52.390;13.028;2022-11-18T11:07:59;3.40;1.00
22578;DHT22;11455;52.390;13.028;2022-11-18T11:10:26;3.40;1.00
22578;DHT22;11455;52.390;13.028;2022-11-18T11:12:56;3.60;1.00
22578;DHT22;11455;52.390;13.028;2022-11-18T11:17:57;3.50;1.00
22578;DHT22;11455;52.390;13.028;2022-11-18T11:20:42;3.50;1.00
22578;DHT22;11455;52.390;13.028;2022-11-18T11:23:08;3.50;1.00
22578;DHT22;11455;52.390;13.028;2022-11-18T11:28:06;3.40;1.00
22578;DHT22;11455;52.390;13.028;2022-11-18T11:30:34;3.40;1.00
22578;DHT22;11455;52.390;13.028;2022-11-18T11:35:33;3.40;1.00
22578;DHT22;11455;52.390;13.028;2022-11-18T11:38:15;3.50;1.00
22578;DHT22;11455;52.390;13.028;2022-11-18T11:41:01;3.60;1.00
22578;DHT22;11455;52.390;13.028;2022-11-18T11:56:37;3.70;1.00
22578;DHT22;11455;52.390;13.028;2022-11-18T12:04:29;3.50;1.00
22578;DHT22;11455;52.390;13.028;2022-11-18T12:06:59;3.40;1.00
22578;DHT22;11455;52.390;13.028;2022-11-18T12:11:54;3.60;1.00
22578;DHT22;11455;52.390;13.028;2022-11-18T12:14:34;3.70;1.00
22578;DHT22;11455;52.390;13.028;2022-11-18T12:17:06;3.70;1.00
22578;DHT22;11455;52.390;13.028;2022-11-18T12:19:36;3.70;1.00
22578;DHT22;11455;52.390;13.028;2022-11-18T12:22:03;3.80;1.00
22578;DHT22;11455;52.390;13.028;2022-11-18T12:24:31;3.80;1.00
22578;DHT22;11455;52.390;13.028;2022-11-18T12:27:01;3.80;1.00
22578;DHT22;11455;52.390;13.028;2022-11-18T12:29:33;3.70;1.00
22578;DHT22;11455;52.390;13.028;2022-11-18T12:32:00;3.60;1.00
22578;DHT22;11455;52.390;13.028;2022-11-18T12:34:41;3.50;1.00
22578;DHT22;11455;52.390;13.028;2022-11-18T12:39:56;3.50;1.00
22578;DHT22;11455;52.390;13.028;2022-11-18T12:42:58;3.60;1.00
22578;DHT22;11455;52.390;13.028;2022-11-18T12:48:01;3.50;1.00
22578;DHT22;11455;52.390;13.028;2022-11-18T12:50:46;3.60;1.00
22578;DHT22;11455;52.390;13.028;2022-11-18T12:53:24;3.70;1.00
22578;DHT22;11455;52.390;13.028;2022-11-18T12:55:51;3.50;1.00
22578;DHT22;11455;52.390;13.028;2022-11-18T12:58:21;3.40;1.00
22578;DHT22;11455;52.390;13.028;2022-11-18T13:00:47;3.50;1.00
22578;DHT22;11455;52.390;13.028;2022-11-18T13:03:20;3.60;1.00
22578;DHT22;11455;52.390;13.028;2022-11-18T13:05:47;3.70;1.00
22578;DHT22;11455;52.390;13.028;2022-11-18T13:08:14;3.70;1.00
22578;DHT22;11455;52.390;13.028;2022-11-18T13:10:45;3.70;1.00
22578;DHT22;11455;52.390;13.028;2022-11-18T13:13:17;3.70;1.00
22578;DHT22;11455;52.390;13.028;2022-11-18T13:15:44;3.60;1.00
22578;DHT22;11455;52.390;13.028;2022-11-18T13:18:28;3.50;1.00
22578;DHT22;11455;52.390;13.028;2022-11-18T13:20:58;3.60;1.00
22578;DHT22;11455;52.390;13.028;2022-11-18T13:23:44;3.50;1.00
22578;DHT22;11455;52.390;13.028;2022-11-18T13:26:31;3.40;1.00
22578;DHT22;11455;52.390;13.028;2022-11-18T13:34:18;3.40;1.00
22578;DHT22;11455;52.390;13.028;2022-11-18T13:36:44;3.40;1.00
22578;DHT22;11455;52.390;13.028;2022-11-18T13:42:06;3.40;1.00
22578;DHT22;11455;52.390;13.028;2022-11-18T13:44:38;3.60;1.00
22578;DHT22;11455;52.390;13.028;2022-11-18T13:49:45;3.70;1.00
22578;DHT22;11455;52.390;13.028;2022-11-18T13:52:12;3.60;1.00
22578;DHT22;11455;52.390;13.028;2022-11-18T13:54:39;3.70;1.00
22578;DHT22;11455;52.390;13.028;2022-11-18T13:57:05;3.60;1.00
22578;DHT22;11455;52.390;13.028;2022-11-18T13:59:30;3.50;1.00
22578;DHT22;11455;52.390;13.028;2022-11-18T14:01:58;3.40;1.00
22578;DHT22;11455;52.390;13.028;2022-11-18T14:04:25;3.40;1.00
22578;DHT22;11455;52.390;13.028;2022-11-18T14:06:51;3.30;1.00
22578;DHT22;11455;52.390;13.028;2022-11-18T14:11:56;3.50;1.00
22578;DHT22;11455;52.390;13.028;2022-11-18T14:14:33;3.60;1.00
22578;DHT22;11455;52.390;13.028;2022-11-18T14:17:18;3.60;1.00
22578;DHT22;11455;52.390;13.028;2022-11-18T14:19:54;3.70;1.00
22578;DHT22;11455;52.390;13.028;2022-11-18T14:22:22;3.70;1.00
22578;DHT22;11455;52.390;13.028;2022-11-18T14:29:57;3.60;1.00
22578;DHT22;11455;52.390;13.028;2022-11-18T14:32:26;3.60;1.00
22578;DHT22;11455;52.390;13.028;2022-11-18T14:34:58;3.70;1.00
22578;DHT22;11455;52.390;13.028;2022-11-18T14:37:26;3.70;1.00
22578;DHT22;11455;52.390;13.028;2022-11-18T14:39:53;3.70;1.00
22578;DHT22;11455;52.390;13.028;2022-11-18T14:42:19;3.70;1.00
22578;DHT22;11455;52.390;13.028;2022-11-18T14:44:44;3.70;1.00
22578;DHT22;11455;52.390;13.028;2022-11-18T14:47:26;3.60;1.00
22578;DHT22;11455;52.390;13.028;2022-11-18T14:49:52;3.60;1.00
22578;DHT22;11455;52.390;13.028;2022-11-18T14:52:18;3.70;1.00
22578;DHT22;11455;52.390;13.028;2022-11-18T14:54:44;3.70;1.00
22578;DHT22;11455;52.390;13.028;2022-11-18T14:57:10;3.70;1.00
22578;DHT22;11455;52.390;13.028;2022-11-18T14:59:37;3.70;1.00
22578;DHT22;11455;52.390;13.028;2022-11-18T15:02:02;3.80;1.00
22578;DHT22;11455;52.390;13.028;2022-11-18T15:04:30;3.70;1.00
22578;DHT22;11455;52.390;13.028;2022-11-18T15:06:56;3.70;1.00
22578;DHT22;11455;52.390;13.028;2022-11-18T15:09:24;3.60;1.00
22578;DHT22;11455;52.390;13.028;2022-11-18T15:11:50;3.60;1.00
22578;DHT22;11455;52.390;13.028;2022-11-18T15:14:15;3.60;1.00
22578;DHT22;11455;52.390;13.028;2022-11-18T15:16:41;3.60;1.00
22578;DHT22;11455;52.390;13.028;2022-11-18T15:19:09;3.60;1.00
22578;DHT22;11455;52.390;13.028;2022-11-18T15:21:37;3.60;1.00
22578;DHT22;11455;52.390;13.028;2022-11-18T15:24:03;3.70;1.00
22578;DHT22;11455;52.390;13.028;2022-11-18T15:26:39;3.70;1.00
22578;DHT22;11455;52.390;13.028;2022-11-18T15:29:13;3.60;1.00
22578;DHT22;11455;52.390;13.028;2022-11-18T15:31:39;3.60;1.00
22578;DHT22;11455;52.390;13.028;2022-11-18T15:34:05;3.50;1.00
22578;DHT22;11455;52.390;13.028;2022-11-18T15:36:31;3.60;1.00
22578;DHT22;11455;52.390;13.028;2022-11-18T15:38:56;3.50;1.00
22578;DHT22;11455;52.390;13.028;2022-11-18T15:41:25;3.50;1.00
22578;DHT22;11455;52.390;13.028;2022-11-18T15:43:52;3.50;1.00
22578;DHT22;11455;52.390;13.028;2022-11-18T15:46:18;3.50;1.00
22578;DHT22;11455;52.390;13.028;2022-11-18T15:48:44;3.50;1.00
22578;DHT22;11455;52.390;13.028;2022-11-18T15:51:10;3.50;1.00
22578;DHT22;11455;52.390;13.028;2022-11-18T15:53:39;3.60;1.00
22578;DHT22;11455;52.390;13.028;2022-11-18T15:58:40;3.60;1.00
22578;DHT22;11455;52.390;13.028;2022-11-18T16:01:05;3.60;1.00
22578;DHT22;11455;52.390;13.028;2022-11-18T16:03:32;3.60;1.00
22578;DHT22;11455;52.390;13.028;2022-11-18T16:06:00;3.70;1.00
22578;DHT22;11455;52.390;13.028;2022-11-18T16:08:26;3.60;1.00
22578;DHT22;11455;52.390;13.028;2022-11-18T16:10:55;3.60;1.00
22578;DHT22;11455;52.390;13.028;2022-11-18T16:13:39;3.50;1.00
22578;DHT22;11455;52.390;13.028;2022-11-18T16:16:05;3.50;1.00
22578;DHT22;11455;52.390;13.028;2022-11-18T16:18:31;3.50;1.00
22578;DHT22;11455;52.390;13.028;2022-11-18T16:20:59;3.40;1.00
22578;DHT22;11455;52.390;13.028;2022-11-18T16:23:25;3.40;1.00
22578;DHT22;11455;52.390;13.028;2022-11-18T16:25:54;3.30;1.00
22578;DHT22;11455;52.390;13.028;2022-11-18T16:28:23;3.40;1.00
22578;DHT22;11455;52.390;13.028;2022-11-18T16:30:49;3.40;1.00
22578;DHT22;11455;52.390;13.028;2022-11-18T16:33:33;3.40;1.00
22578;DHT22;11455;52.390;13.028;2022-11-18T16:35:59;3.40;1.00
22578;DHT22;11455;52.390;13.028;2022-11-18T16:38:25;3.40;1.00
22578;DHT22;11455;52.390;13.028;2022-11-18T16:40:57;3.30;1.00
22578;DHT22;11455;52.390;13.028;2022-11-18T16:43:22;3.40;1.00
22578;DHT22;11455;52.390;13.028;2022-11-18T16:45:49;3.40;1.00
22578;DHT22;11455;52.390;13.028;2022-11-18T16:48:15;3.50;1.00
22578;DHT22;11455;52.390;13.028;2022-11-18T16:50:40;3.50;1.00
22578;DHT22;11455;52.390;13.028;2022-11-18T16:53:06;3.50;1.00
22578;DHT22;11455;52.390;13.028;2022-11-18T16:55:31;3.60;1.00
22578;DHT22;11455;52.390;13.028;2022-11-18T16:57:57;3.60;1.00
22578;DHT22;11455;52.390;13.028;2022-11-18T17:00:23;3.50;1.00
22578;DHT22;11455;52.390;13.028;2022-11-18T17:02:48;3.50;1.00
22578;DHT22;11455;52.390;13.028;2022-11-18T17:05:16;3.50;1.00
22578;DHT22;11455;52.390;13.028;2022-11-18T17:07:42;3.50;1.00
22578;DHT22;11455;52.390;13.028;2022-11-18T17:10:07;3.50;1.00
22578;DHT22;11455;52.390;13.028;2022-11-18T17:12:47;3.50;1.00
22578;DHT22;11455;52.390;13.028;2022-11-18T17:15:13;3.40;1.00
22578;DHT22;11455;52.390;13.028;2022-11-18T17:17:39;3.30;1.00
22578;DHT22;11455;52.390;13.028;2022-11-18T17:20:04;3.30;1.00
22578;DHT22;11455;52.390;13.028;2022-11-18T17:22:32;3.30;1.00
22578;DHT22;11455;52.390;13.028;2022-11-18T17:24:58;3.30;1.00
22578;DHT22;11455;52.390;13.028;2022-11-18T17:27:23;3.30;1.00